KSWW

Avenger Field Airport

Sweetwater, Texas, USA
METAR KSWW 191455Z AUTO 20016KT 10SM CLR 02/M04 A3012 RMK AO2 T00211045
Observed Flight Rules
Jan-19 @ 14:55 UTC (31 minutes ago) Visual Flight Rules
Wind Visibility Clouds
200° at 16 knots 10 miles
  • Clear skies
Temperatures Readings
Current 2°C / 36°F
Dewpoint -5°C / 23°F
Humidity 60%
Altimeter 30.12" Hg
Pressure 1020 hPa
Elevation 727
METAR KSWW 191455Z AUTO 20016KT 10SM CLR 02/M04 A3012 RMK AO2 T00211045
Observed Flight Rules
Jan-19 @ 14:55 UTC
(31 minutes ago)
VFR
Wind Visibility
200° at 16 knots 10 miles
Clouds
  • Clear skies
Temperature Dewpoint
2°C / 36°F -5°C / 23°F
Humidity Altimeter Pressure
60% 30.12" Hg 1020 hPa